createdAt,value
2022-09-12T00:01:07.870Z,98509.84
2022-09-12T00:04:01.014Z,98510.16
2022-09-12T00:06:50.353Z,98506.84
2022-09-12T00:09:42.409Z,98510.78
2022-09-12T00:12:31.794Z,98506.91
2022-09-12T00:15:21.279Z,98511.41
2022-09-12T00:18:16.084Z,98510.03
2022-09-12T00:21:06.597Z,98517.38
2022-09-12T00:23:56.984Z,98510.66
2022-09-12T00:26:47.879Z,98514.78
2022-09-12T00:29:37.187Z,98499.28
2022-09-12T00:32:26.465Z,98510.91
2022-09-12T00:35:16.009Z,98508.56
2022-09-12T00:38:05.584Z,98506.91
2022-09-12T00:40:55.264Z,98500.19
2022-09-12T00:43:49.730Z,98502.19
2022-09-12T00:46:44.852Z,98494.69
2022-09-12T00:49:46.438Z,98495.97
2022-09-12T00:52:42.308Z,98487.47
2022-09-12T00:55:39.453Z,98485.78
2022-09-12T00:58:38.976Z,98486.91
2022-09-12T01:01:32.588Z,98491.72
2022-09-12T01:04:27.153Z,98484.88
2022-09-12T01:07:17.175Z,98485.88
2022-09-12T01:10:08.632Z,98488.69
2022-09-12T01:12:59.101Z,98482.84
2022-09-12T01:15:48.854Z,98481.31
2022-09-12T01:18:58.318Z,98479.81
2022-09-12T01:22:07.011Z,98481.91
2022-09-12T01:25:12.723Z,98471.72
2022-09-12T01:28:33.415Z,98472.88
2022-09-12T01:31:33.087Z,98465.22
2022-09-12T01:34:29.488Z,98459.38
2022-09-12T01:37:31.602Z,98462.34
2022-09-12T01:40:33.312Z,98467.66
2022-09-12T01:43:32.874Z,98468.78
2022-09-12T01:46:34.414Z,98467.41
2022-09-12T01:49:30.719Z,98468.56
2022-09-12T01:52:27.736Z,98465.19
2022-09-12T01:55:25.433Z,98455.41
2022-09-12T01:58:23.160Z,98452.06
2022-09-12T02:01:18.903Z,98450.25
2022-09-12T02:04:17.774Z,98448.75
2022-09-12T02:07:15.403Z,98451.56
2022-09-12T02:10:11.862Z,98448.03
2022-09-12T02:13:13.087Z,98444.69
2022-09-12T02:16:10.733Z,98452.81
2022-09-12T02:19:10.565Z,98446.84
2022-09-12T02:22:05.814Z,98448.78
2022-09-12T02:25:01.096Z,98448.94
2022-09-12T02:27:58.458Z,98448.28
2022-09-12T02:31:00.013Z,98451.91
2022-09-12T02:34:04.895Z,98438.25
2022-09-12T02:37:09.116Z,98437.56
2022-09-12T02:40:00.901Z,98438.53
2022-09-12T02:42:50.559Z,98446.53
2022-09-12T02:45:40.340Z,98441.50
2022-09-12T02:48:35.655Z,98445.13
2022-09-12T02:51:26.294Z,98446.13
2022-09-12T02:54:20.154Z,98444.44
2022-09-12T02:57:22.665Z,98448.22
2022-09-12T03:00:14.703Z,98444.72
2022-09-12T03:03:29.760Z,98440.56
2022-09-12T03:06:31.008Z,98443.34
2022-09-12T03:09:36.766Z,98437.34
2022-09-12T03:12:48.485Z,98434.84
2022-09-12T03:15:58.571Z,98437.78
2022-09-12T03:19:03.357Z,98435.28
2022-09-12T03:22:10.821Z,98437.41
2022-09-12T03:25:15.655Z,98439.22
2022-09-12T03:28:11.425Z,98437.72
2022-09-12T03:31:00.877Z,98433.50
2022-09-12T03:33:50.242Z,98436.03
2022-09-12T03:36:39.835Z,98435.22
2022-09-12T03:39:29.200Z,98441.47
2022-09-12T03:42:20.513Z,98442.47
2022-09-12T03:45:12.369Z,98444.28
2022-09-12T03:48:01.842Z,98442.63
2022-09-12T03:50:51.282Z,98440.25
2022-09-12T03:53:41.129Z,98443.75
2022-09-12T03:56:30.749Z,98443.06
2022-09-12T03:59:21.426Z,98444.72
2022-09-12T04:02:13.281Z,98446.69
2022-09-12T04:05:02.581Z,98435.69
2022-09-12T04:07:53.020Z,98448.28
2022-09-12T04:10:42.976Z,98439.63
2022-09-12T04:13:32.464Z,98452.19
2022-09-12T04:16:23.457Z,98461.13
2022-09-12T04:19:13.830Z,98453.19
2022-09-12T04:22:05.035Z,98452.47
2022-09-12T04:24:54.525Z,98452.47
2022-09-12T04:27:43.883Z,98458.50
2022-09-12T04:30:35.715Z,98460.16
2022-09-12T04:33:26.862Z,98452.88
2022-09-12T04:36:18.876Z,98455.25
2022-09-12T04:39:09.043Z,98440.41
2022-09-12T04:41:58.886Z,98447.06
2022-09-12T04:44:49.556Z,98445.69
2022-09-12T04:47:40.006Z,98453.16
2022-09-12T04:50:30.757Z,98450.91
2022-09-12T04:53:20.133Z,98452.56
2022-09-12T04:56:12.909Z,98449.34
2022-09-12T04:59:07.575Z,98452.50
2022-09-12T05:01:57.132Z,98447.97
2022-09-12T05:04:46.955Z,98464.75
2022-09-12T05:07:38.532Z,98465.28
2022-09-12T05:10:28.550Z,98462.84
2022-09-12T05:13:18.560Z,98464.44
2022-09-12T05:16:11.928Z,98483.81
2022-09-12T05:19:01.975Z,98471.72
2022-09-12T05:21:51.478Z,98475.63
2022-09-12T05:24:47.272Z,98476.13
2022-09-12T05:27:46.396Z,98482.31
2022-09-12T05:30:37.942Z,98488.00
2022-09-12T05:33:27.359Z,98487.00
2022-09-12T05:36:20.214Z,98492.69
2022-09-12T05:39:09.767Z,98492.84
2022-09-12T05:42:00.981Z,98491.72
2022-09-12T05:44:50.389Z,98490.50
2022-09-12T05:47:39.741Z,98492.53
2022-09-12T05:50:29.748Z,98501.03
2022-09-12T05:53:20.087Z,98499.44
2022-09-12T05:56:13.233Z,98507.34
2022-09-12T05:59:07.653Z,98506.50
2022-09-12T06:01:57.179Z,98510.31
2022-09-12T06:04:46.495Z,98506.91
2022-09-12T06:07:36.754Z,98512.22
2022-09-12T06:10:26.656Z,98514.72
2022-09-12T06:13:16.288Z,98511.22
2022-09-12T06:16:10.590Z,98514.94
2022-09-12T06:19:03.762Z,98516.28
2022-09-12T06:21:53.483Z,98518.72
2022-09-12T06:24:43.451Z,98521.41
2022-09-12T06:27:32.903Z,98518.81
2022-09-12T06:30:25.326Z,98508.06
2022-09-12T06:33:16.661Z,98514.81
2022-09-12T06:36:12.426Z,98517.41
2022-09-12T06:39:05.447Z,98508.44
2022-09-12T06:42:02.212Z,98510.91
2022-09-12T06:45:24.576Z,98501.81
2022-09-12T06:48:15.526Z,98501.66
2022-09-12T06:51:08.207Z,98492.25
2022-09-12T06:53:59.144Z,98496.44
2022-09-12T06:56:48.873Z,98492.97
2022-09-12T06:59:38.305Z,98487.66
2022-09-12T07:02:27.773Z,98490.34
2022-09-12T07:05:18.674Z,98490.88
2022-09-12T07:08:09.844Z,98491.38
2022-09-12T07:11:12.747Z,98489.38
2022-09-12T07:14:06.958Z,98490.06
2022-09-12T07:16:56.676Z,98486.06
2022-09-12T07:19:46.019Z,98489.09
2022-09-12T07:22:39.546Z,98479.75
2022-09-12T07:25:28.881Z,98472.38
2022-09-12T07:28:18.284Z,98474.38
2022-09-12T07:31:10.823Z,98475.19
2022-09-12T07:34:00.201Z,98466.50
2022-09-12T07:36:51.791Z,98465.31
2022-09-12T07:39:42.749Z,98472.47
2022-09-12T07:42:45.474Z,98468.28
2022-09-12T07:45:35.342Z,98468.91
2022-09-12T07:48:25.301Z,98463.50
2022-09-12T07:51:14.692Z,98472.38
2022-09-12T07:54:04.488Z,98476.97
2022-09-12T07:56:55.493Z,98470.25
2022-09-12T07:59:53.374Z,98470.84
2022-09-12T08:02:44.107Z,98473.59
2022-09-12T08:05:35.854Z,98469.72
2022-09-12T08:08:25.825Z,98473.59
2022-09-12T08:11:20.779Z,98475.06
2022-09-12T08:14:11.589Z,98478.25
2022-09-12T08:17:03.390Z,98479.69
2022-09-12T08:19:52.763Z,98482.06
2022-09-12T08:22:43.420Z,98486.63
2022-09-12T08:25:34.827Z,98478.44
2022-09-12T08:28:25.815Z,98477.03
2022-09-12T08:31:20.478Z,98467.75
2022-09-12T08:34:10.575Z,98462.41
2022-09-12T08:37:01.230Z,98446.94
2022-09-12T08:39:58.665Z,98440.88
2022-09-12T08:43:04.507Z,98437.56
2022-09-12T08:46:03.770Z,98439.59
2022-09-12T08:49:03.193Z,98434.19
2022-09-12T08:51:55.373Z,98426.31
2022-09-12T08:54:46.552Z,98429.13
2022-09-12T08:57:36.116Z,98421.00
2022-09-12T09:00:32.824Z,98418.16
2022-09-12T09:03:56.765Z,98421.09
2022-09-12T09:07:24.227Z,98421.75
2022-09-12T09:10:35.334Z,98411.13
2022-09-12T09:14:25.489Z,98412.25
2022-09-12T09:17:21.708Z,98407.63
2022-09-12T09:20:28.511Z,98409.56
2022-09-12T09:23:28.548Z,98395.97
2022-09-12T09:26:29.772Z,98401.88
2022-09-12T09:29:22.025Z,98388.06
2022-09-12T09:32:19.787Z,98381.28
2022-09-12T09:35:22.527Z,98377.72
2022-09-12T09:38:26.638Z,98377.25
2022-09-12T09:41:55.170Z,98380.47
2022-09-12T09:44:49.409Z,98379.53
2022-09-12T09:47:40.148Z,98374.84
2022-09-12T09:50:30.527Z,98378.47
2022-09-12T09:53:53.672Z,98363.03
2022-09-12T09:56:44.676Z,98361.09
2022-09-12T09:59:40.499Z,98363.69
2022-09-12T10:02:38.891Z,98359.53
2022-09-12T10:05:30.528Z,98351.81
2022-09-12T10:08:30.768Z,98353.88
2022-09-12T10:11:29.831Z,98356.72
2022-09-12T10:14:38.165Z,98351.31
2022-09-12T10:17:34.482Z,98346.63
2022-09-12T10:20:39.709Z,98337.84
2022-09-12T10:23:40.500Z,98341.59
2022-09-12T10:26:40.969Z,98340.63
2022-09-12T10:29:43.405Z,98332.72
2022-09-12T10:32:41.539Z,98334.81
2022-09-12T10:35:43.816Z,98330.78
2022-09-12T10:38:34.578Z,98324.22
2022-09-12T10:41:27.625Z,98325.19
2022-09-12T10:44:30.859Z,98329.06
2022-09-12T10:47:29.711Z,98334.13
2022-09-12T10:50:26.790Z,98327.59
2022-09-12T10:53:25.258Z,98328.00
2022-09-12T10:56:23.027Z,98319.91
2022-09-12T10:59:27.236Z,98319.94
2022-09-12T11:02:25.080Z,98321.72
2022-09-12T11:05:23.937Z,98322.25
2022-09-12T11:08:44.357Z,98318.56
2022-09-12T11:11:47.364Z,98310.06
2022-09-12T11:15:03.319Z,98309.88
2022-09-12T11:18:00.618Z,98305.81
2022-09-12T11:21:12.104Z,98302.81
2022-09-12T11:24:33.251Z,98297.06
2022-09-12T11:27:40.143Z,98286.91
2022-09-12T11:30:39.192Z,98287.09
2022-09-12T11:33:45.412Z,98298.00
2022-09-12T11:39:49.638Z,98285.03
2022-09-12T11:42:42.368Z,98279.84
2022-09-12T11:45:38.289Z,98277.31
2022-09-12T11:48:38.872Z,98272.69
2022-09-12T11:51:34.307Z,98273.81
2022-09-12T11:54:29.587Z,98280.06
2022-09-12T11:57:24.487Z,98282.25
2022-09-12T12:00:19.384Z,98278.69
2022-09-12T12:03:17.153Z,98268.56
2022-09-12T12:06:13.947Z,98261.97
2022-09-12T12:09:06.533Z,98261.13
2022-09-12T12:12:00.694Z,98258.16
2022-09-12T12:14:52.956Z,98258.09
2022-09-12T12:17:42.318Z,98255.84
2022-09-12T12:20:33.503Z,98255.34
2022-09-12T12:23:31.291Z,98248.53
2022-09-12T12:26:57.342Z,98251.28
2022-09-12T12:29:46.794Z,98245.53
2022-09-12T12:32:36.012Z,98233.72
2022-09-12T12:35:46.270Z,98240.28
2022-09-12T12:38:38.204Z,98229.06
2022-09-12T12:41:45.034Z,98232.59
2022-09-12T12:44:59.109Z,98230.97
2022-09-12T12:47:52.598Z,98225.78
2022-09-12T12:50:43.895Z,98225.84
2022-09-12T12:53:33.014Z,98219.84
2022-09-12T12:56:40.728Z,98220.34
2022-09-12T12:59:31.006Z,98224.44
2022-09-12T13:02:28.515Z,98219.25
2022-09-12T13:05:22.295Z,98215.97
2022-09-12T13:08:31.581Z,98214.06
2022-09-12T13:11:32.972Z,98206.09
2022-09-12T13:14:52.599Z,98206.66
2022-09-12T13:17:46.965Z,98203.97
2022-09-12T13:20:48.324Z,98194.13
2022-09-12T13:23:39.141Z,98192.50
2022-09-12T13:26:28.160Z,98199.09
2022-09-12T13:29:20.449Z,98195.81
2022-09-12T13:32:11.085Z,98192.13
2022-09-12T13:35:15.586Z,98189.06
2022-09-12T13:38:17.575Z,98185.09
2022-09-12T13:41:34.007Z,98179.38
2022-09-12T13:44:25.569Z,98174.72
2022-09-12T13:47:25.067Z,98175.31
2022-09-12T13:50:21.667Z,98172.56
2022-09-12T13:53:17.906Z,98162.69
2022-09-12T13:56:07.706Z,98166.78
2022-09-12T13:59:00.915Z,98160.78
2022-09-12T14:01:50.717Z,98166.78
2022-09-12T14:04:57.534Z,98167.88
2022-09-12T14:07:56.810Z,98163.22
2022-09-12T14:10:50.457Z,98168.44
2022-09-12T14:13:40.476Z,98165.69
2022-09-12T14:16:39.171Z,98162.94
2022-09-12T14:19:30.097Z,98156.09
2022-09-12T14:22:19.347Z,98162.28
2022-09-12T14:25:25.546Z,98155.09
2022-09-12T14:28:22.790Z,98152.44
2022-09-12T14:31:26.695Z,98148.09
2022-09-12T14:34:20.089Z,98146.69
2022-09-12T14:37:09.434Z,98146.97
2022-09-12T14:39:59.262Z,98136.31
2022-09-12T14:42:51.455Z,98142.63
2022-09-12T14:45:40.924Z,98148.16
2022-09-12T14:48:36.362Z,98133.41
2022-09-12T14:51:32.039Z,98129.84
2022-09-12T14:54:44.403Z,98133.16
2022-09-12T14:57:38.835Z,98124.41
2022-09-12T15:00:28.091Z,98130.41
2022-09-12T15:03:31.353Z,98127.28
2022-09-12T15:06:28.808Z,98124.63
2022-09-12T15:09:18.174Z,98122.22
2022-09-12T15:12:07.474Z,98115.94
2022-09-12T15:15:05.877Z,98112.66
2022-09-12T15:17:54.947Z,98114.31
2022-09-12T15:20:46.544Z,98115.91
2022-09-12T15:23:42.831Z,98117.28
2022-09-12T15:26:32.071Z,98115.59
2022-09-12T15:29:21.275Z,98110.88
2022-09-12T15:32:24.349Z,98105.91
2022-09-12T15:35:18.315Z,98101.47
2022-09-12T15:38:07.384Z,98097.13
2022-09-12T15:40:57.924Z,98093.31
2022-09-12T15:43:48.235Z,98095.78
2022-09-12T15:46:37.475Z,98094.38
2022-09-12T15:49:26.697Z,98089.25
2022-09-12T15:52:17.977Z,98083.53
2022-09-12T15:55:15.764Z,98078.06
2022-09-12T15:58:07.394Z,98087.16
2022-09-12T16:00:57.187Z,98087.47
2022-09-12T16:03:48.520Z,98090.22
2022-09-12T16:06:37.765Z,98089.13
2022-09-12T16:09:27.077Z,98087.75
2022-09-12T16:12:16.254Z,98090.69
2022-09-12T16:15:08.223Z,98083.00
2022-09-12T16:17:57.171Z,98083.56
2022-09-12T16:20:46.232Z,98074.22
2022-09-12T16:23:35.402Z,98076.84
2022-09-12T16:26:24.554Z,98075.63
2022-09-12T16:29:14.874Z,98081.56
2022-09-12T16:32:05.694Z,98074.53
2022-09-12T16:34:54.829Z,98067.34
2022-09-12T16:37:44.166Z,98072.31
2022-09-12T16:40:33.168Z,98067.44
2022-09-12T16:43:22.523Z,98065.84
2022-09-12T16:46:14.043Z,98063.69
2022-09-12T16:49:06.408Z,98061.78
2022-09-12T16:51:55.495Z,98066.16
2022-09-12T16:54:45.219Z,98058.81
2022-09-12T16:57:35.079Z,98054.72
2022-09-12T17:00:24.180Z,98055.22
2022-09-12T17:03:13.747Z,98062.84
2022-09-12T17:06:07.669Z,98059.97
2022-09-12T17:09:01.621Z,98052.59
2022-09-12T17:11:52.379Z,98047.59
2022-09-12T17:14:41.819Z,98049.13
2022-09-12T17:17:30.949Z,98054.50
2022-09-12T17:20:20.179Z,98050.06
2022-09-12T17:23:10.657Z,98045.63
2022-09-12T17:25:59.984Z,98052.03
2022-09-12T17:28:49.617Z,98051.31
2022-09-12T17:31:38.899Z,98052.25
2022-09-12T17:34:28.215Z,98052.63
2022-09-12T17:37:17.742Z,98042.97
2022-09-12T17:40:10.288Z,98059.00
2022-09-12T17:43:04.295Z,98061.78
2022-09-12T17:45:57.694Z,98060.41
2022-09-12T17:48:52.050Z,98063.19
2022-09-12T17:51:42.086Z,98067.53
2022-09-12T17:54:31.961Z,98065.66
2022-09-12T17:57:22.420Z,98072.50
2022-09-12T18:00:13.311Z,98075.78
2022-09-12T18:03:01.433Z,98078.03
2022-09-12T18:05:55.634Z,98078.81
2022-09-12T18:08:44.781Z,98075.59
2022-09-12T18:11:34.636Z,98084.44
2022-09-12T18:14:26.247Z,98082.91
2022-09-12T18:17:15.297Z,98086.75
2022-09-12T18:20:04.881Z,98086.84
2022-09-12T18:22:54.010Z,98079.06
2022-09-12T18:25:43.087Z,98082.81
2022-09-12T18:28:34.037Z,98073.97
2022-09-12T18:31:28.816Z,98077.56
2022-09-12T18:34:19.171Z,98074.69
2022-09-12T18:37:08.295Z,98080.72
2022-09-12T18:39:57.826Z,98079.75
2022-09-12T18:42:47.024Z,98076.84
2022-09-12T18:45:36.639Z,98085.56
2022-09-12T18:48:27.144Z,98088.91
2022-09-12T18:51:18.938Z,98083.94
2022-09-12T18:54:13.897Z,98085.38
2022-09-12T18:57:02.998Z,98083.13
2022-09-12T18:59:52.753Z,98087.25
2022-09-12T19:02:41.936Z,98086.84
2022-09-12T19:05:33.596Z,98093.44
2022-09-12T19:08:22.818Z,98089.28
2022-09-12T19:14:27.452Z,98090.69
2022-09-12T19:17:17.853Z,98093.75
2022-09-12T19:20:10.552Z,98087.94
2022-09-12T19:23:00.821Z,98083.78
2022-09-12T19:26:08.451Z,98088.28
2022-09-12T19:28:58.117Z,98091.19
2022-09-12T19:31:47.503Z,98080.00
2022-09-12T19:34:36.633Z,98079.09
2022-09-12T19:37:25.809Z,98077.41
2022-09-12T19:40:41.422Z,98073.28
2022-09-12T19:43:32.198Z,98074.06
2022-09-12T19:46:23.653Z,98069.84
2022-09-12T19:49:13.739Z,98073.31
2022-09-12T19:52:03.527Z,98072.66
2022-09-12T19:54:52.573Z,98086.84
2022-09-12T19:57:43.102Z,98087.63
2022-09-12T20:00:32.200Z,98089.44
2022-09-12T20:03:21.542Z,98094.75
2022-09-12T20:06:58.355Z,98091.38
2022-09-12T20:09:47.566Z,98085.16
2022-09-12T20:12:36.716Z,98089.63
2022-09-12T20:15:27.100Z,98091.44
2022-09-12T20:18:16.223Z,98092.22
2022-09-12T20:21:14.659Z,98090.28
2022-09-12T20:24:07.482Z,98089.41
2022-09-12T20:26:57.534Z,98085.81
2022-09-12T20:29:46.524Z,98081.03
2022-09-12T20:32:36.994Z,98090.81
2022-09-12T20:35:26.078Z,98089.75
2022-09-12T20:38:15.201Z,98089.47
2022-09-12T20:41:07.796Z,98093.94
2022-09-12T20:43:58.393Z,98090.19
2022-09-12T20:46:47.811Z,98084.72
2022-09-12T20:49:38.378Z,98092.53
2022-09-12T20:53:42.292Z,98087.91
2022-09-12T20:56:37.215Z,98090.31
2022-09-12T20:59:26.317Z,98089.03
2022-09-12T21:02:16.803Z,98079.09
2022-09-12T21:05:07.861Z,98077.16
2022-09-12T21:07:56.913Z,98074.41
2022-09-12T21:10:46.394Z,98078.69
2022-09-12T21:13:35.943Z,98073.88
2022-09-12T21:16:25.409Z,98078.75
2022-09-12T21:19:14.492Z,98078.50
2022-09-12T21:22:05.043Z,98072.88
2022-09-12T21:24:54.055Z,98085.97
2022-09-12T21:27:43.078Z,98076.84
2022-09-12T21:30:57.305Z,98074.72
2022-09-12T21:34:11.323Z,98070.91
2022-09-12T21:37:00.989Z,98081.13
2022-09-12T21:39:51.486Z,98083.53
2022-09-12T21:42:40.612Z,98092.94
2022-09-12T21:45:30.131Z,98089.97
2022-09-12T21:48:31.966Z,98087.00
2022-09-12T21:51:21.068Z,98083.88
2022-09-12T21:54:10.279Z,98072.09
2022-09-12T21:57:00.685Z,98081.47
2022-09-12T21:59:50.123Z,98074.00
2022-09-12T22:02:39.604Z,98078.88
2022-09-12T22:05:32.021Z,98067.09
2022-09-12T22:08:21.010Z,98066.59
2022-09-12T22:11:11.466Z,98059.13
2022-09-12T22:14:01.962Z,98058.03
2022-09-12T22:16:51.003Z,98047.69
2022-09-12T22:19:40.291Z,98055.06
2022-09-12T22:22:46.765Z,98048.25
2022-09-12T22:25:35.969Z,98055.78
2022-09-12T22:28:25.369Z,98058.63
2022-09-12T22:31:17.516Z,98051.19
2022-09-12T22:34:07.312Z,98051.19
2022-09-12T22:36:56.850Z,98053.53
2022-09-12T22:39:46.458Z,98053.72
2022-09-12T22:42:37.005Z,98056.94
2022-09-12T22:45:26.092Z,98057.09
2022-09-12T22:48:17.125Z,98066.47
2022-09-12T22:51:06.862Z,98062.69
2022-09-12T22:53:56.434Z,98047.84
2022-09-12T22:56:45.499Z,98047.22
2022-09-12T22:59:34.620Z,98048.56
2022-09-12T23:02:24.559Z,98038.63
2022-09-12T23:05:15.176Z,98032.78
2022-09-12T23:08:04.425Z,98029.78
2022-09-12T23:11:01.315Z,98023.81
2022-09-12T23:13:52.238Z,98013.50
2022-09-12T23:16:41.296Z,98014.88
2022-09-12T23:19:30.343Z,98013.88
2022-09-12T23:22:20.760Z,98014.91
2022-09-12T23:25:10.977Z,98016.91
2022-09-12T23:28:00.062Z,98014.97
2022-09-12T23:30:55.622Z,98028.00
2022-09-12T23:33:45.592Z,98019.50
2022-09-12T23:36:35.524Z,98022.50
2022-09-12T23:39:26.088Z,98019.38
2022-09-12T23:42:15.113Z,98015.41
2022-09-12T23:45:04.779Z,98012.44
2022-09-12T23:47:53.812Z,98016.47
2022-09-12T23:50:45.600Z,98015.97
2022-09-12T23:53:35.606Z,98018.34
2022-09-12T23:56:26.363Z,98018.69
2022-09-12T23:59:15.586Z,98018.19
